Terminal Aerodrome Forecast
Issued by NWS

Current Version | Previous Version | Text Only | Print | Product List | Glossary On
Versions: 1 2 3 4 5 6 7 8 9 10 11 12 13 14 15 16 17 18 19 20 21 22
000
FTUS41 KPBZ 010500
TAFHLG
TAF
KHLG 010531Z 0106/0206 03007KT P6SM OVC008
     FM011000 VRB03KT 3SM BR OVC005
     FM011400 07005KT 5SM BR BKN015
     FM011600 11005KT P6SM BKN035
     FM012100 19005KT P6SM BKN250=

USA.gov is the U.S. government's official web portal to all federal, state and local government web resources and services.